Time;durP1;ratioP1;P1;durP2;ratioP2;P2;SDS_P1;SDS_P2;PMS_P1;PMS_P2;Temp;Humidity;BMP_temperature;BMP_pressure;BME280_temperature;BME280_humidity;BME280_pressure;Samples;Min_cycle;Max_cycle;Signal;HPM_P1;HPM_P2
2021/12/16 00:07:06;;;;;;;16.40;14.20;;;;;;;4.53;100.00;99849.69;5056517;28;20204;-70
2021/12/16 00:09:42;;;;;;;16.57;14.57;;;;;;;4.56;100.00;99852.06;5056661;28;20616;-70
2021/12/16 00:31:26;;;;;;;17.47;14.57;;;;;;;4.46;100.00;99849.41;5056225;28;20208;-70
2021/12/16 00:34:01;;;;;;;18.87;15.53;;;;;;;4.52;100.00;99840.16;5056075;28;20189;-70
2021/12/16 00:36:39;;;;;;;17.67;14.60;;;;;;;4.44;100.00;99846.06;5056093;28;20572;-70
2021/12/16 00:39:10;;;;;;;18.73;15.50;;;;;;;4.45;100.00;99847.75;5056005;28;20611;-70
2021/12/16 00:41:40;;;;;;;17.43;14.43;;;;;;;4.56;100.00;99850.25;5056285;28;20189;-70
2021/12/16 00:44:13;;;;;;;16.10;14.30;;;;;;;4.45;100.00;99842.50;5055579;28;20225;-70
2021/12/16 00:49:35;;;;;;;18.07;15.30;;;;;;;4.46;100.00;99848.56;5056329;28;20176;-70
2021/12/16 00:54:56;;;;;;;18.40;15.80;;;;;;;4.47;100.00;99840.53;5056187;28;20203;-70
2021/12/16 00:57:22;;;;;;;21.90;16.00;;;;;;;4.48;100.00;99849.28;5056235;28;20200;-70
2021/12/16 00:59:50;;;;;;;20.83;16.10;;;;;;;4.46;100.00;99849.41;5055866;28;20593;-70
2021/12/16 01:02:37;;;;;;;17.43;14.97;;;;;;;4.45;100.00;99852.19;5056175;28;20296;-70
2021/12/16 01:08:21;;;;;;;19.03;15.50;;;;;;;4.36;100.00;99855.63;5038500;28;20198;-71
2021/12/16 01:33:42;;;;;;;17.30;14.53;;;;;;;4.48;100.00;99849.28;5017847;28;20678;-70
2021/12/16 01:36:17;;;;;;;15.97;14.27;;;;;;;4.55;100.00;99859.13;5055571;28;20209;-70
2021/12/16 01:39:20;;;;;;;15.97;14.10;;;;;;;4.51;100.00;99859.53;5055809;28;20196;-70
2021/12/16 01:42:23;;;;;;;14.23;12.77;;;;;;;4.54;100.00;99861.91;5055238;28;20608;-70
2021/12/16 01:47:49;;;;;;;15.53;13.57;;;;;;;4.52;100.00;99851.50;5055378;28;20587;-70
2021/12/16 01:50:22;;;;;;;16.67;13.50;;;;;;;4.51;100.00;99854.25;5055698;28;20197;-70
2021/12/16 01:53:12;;;;;;;18.03;15.03;;;;;;;4.53;100.00;99854.97;5055959;28;20212;-70
2021/12/16 01:55:54;;;;;;;14.53;12.87;;;;;;;4.57;100.00;99859.00;5056549;28;20225;-70
2021/12/16 01:58:27;;;;;;;14.93;13.30;;;;;;;4.54;100.00;99852.19;5059281;28;20193;-70
2021/12/16 02:01:11;;;;;;;15.77;13.57;;;;;;;4.52;100.00;99863.84;5059226;28;20285;-70
2021/12/16 02:03:44;;;;;;;14.73;13.23;;;;;;;4.56;100.00;99852.06;5059444;28;20239;-70
2021/12/16 02:06:27;;;;;;;13.83;12.43;;;;;;;4.55;100.00;99860.91;5059052;28;20206;-70
2021/12/16 02:08:56;;;;;;;16.70;13.23;;;;;;;4.55;100.00;99858.28;5059824;28;20224;-68
2021/12/16 02:11:43;;;;;;;14.47;12.90;;;;;;;4.55;100.00;99856.50;5058588;28;20210;-68
2021/12/16 02:28:13;;;;;;;15.13;13.53;;;;;;;4.56;99.66;99833.63;5058977;28;20257;-68
2021/12/16 02:36:38;;;;;;;15.97;14.27;;;;;;;4.62;100.00;99846.25;5058215;28;20188;-68
2021/12/16 02:39:10;;;;;;;15.77;14.17;;;;;;;4.60;99.02;99840.25;5058507;28;20192;-68
2021/12/16 02:41:40;;;;;;;15.40;13.80;;;;;;;4.58;98.66;99844.84;5058414;28;20189;-68
2021/12/16 02:49:44;;;;;;;15.67;14.00;;;;;;;4.56;98.71;99841.53;5058013;28;20172;-68
2021/12/16 02:52:12;;;;;;;15.07;13.10;;;;;;;4.56;98.46;99844.97;5058259;28;20190;-69
2021/12/16 02:54:39;;;;;;;14.50;13.00;;;;;;;4.49;99.31;99837.78;5057845;28;20232;-68
2021/12/16 02:57:06;;;;;;;14.93;13.43;;;;;;;4.56;98.82;99839.72;5058174;28;20181;-68
2021/12/16 02:59:34;;;;;;;15.73;12.77;;;;;;;4.55;99.46;99847.75;5057866;28;20596;-68
2021/12/16 03:02:08;;;;;;;14.23;12.73;;;;;;;4.47;99.60;99839.72;5058053;28;20276;-68
2021/12/16 03:04:37;;;;;;;16.10;14.40;;;;;;;4.51;99.23;99846.34;5057584;28;20311;-68
2021/12/16 03:07:06;;;;;;;14.97;13.37;;;;;;;4.61;98.44;99850.66;5057246;28;20214;-69
2021/12/16 03:12:40;;;;;;;14.77;13.00;;;;;;;4.64;98.75;99844.28;5036998;28;20224;-68
2021/12/16 03:15:16;;;;;;;14.33;12.83;;;;;;;4.51;97.96;99847.19;5057455;28;20221;-69
2021/12/16 03:17:52;;;;;;;13.77;12.37;;;;;;;4.51;98.41;99843.72;5057621;28;20201;-68
2021/12/16 03:20:28;;;;;;;14.90;13.37;;;;;;;4.53;98.42;99847.06;5057899;28;20205;-68
2021/12/16 03:23:06;;;;;;;15.10;13.50;;;;;;;4.57;97.58;99848.47;5057574;28;20251;-68
2021/12/16 03:25:45;;;;;;;14.87;13.27;;;;;;;4.58;98.01;99853.59;5057463;28;20596;-68
2021/12/16 03:28:32;;;;;;;14.43;12.93;;;;;;;4.62;98.27;99854.97;5057560;28;20281;-69
2021/12/16 03:31:10;;;;;;;14.87;13.33;;;;;;;4.59;99.48;99843.88;5057407;28;20288;-69
2021/12/16 03:34:08;;;;;;;15.70;13.97;;;;;;;4.64;98.03;99837.22;5057152;28;20640;-69
2021/12/16 03:36:49;;;;;;;14.13;12.63;;;;;;;4.62;98.80;99849.69;5057028;28;20576;-68
2021/12/16 03:39:17;;;;;;;15.07;13.47;;;;;;;4.61;98.63;99839.31;5057331;28;20189;-68
2021/12/16 03:41:44;;;;;;;15.67;13.20;;;;;;;4.54;98.46;99851.34;5057216;28;20190;-68
2021/12/16 03:44:18;;;;;;;14.83;13.23;;;;;;;4.64;97.46;99849.56;5057121;28;20228;-68
2021/12/16 03:46:49;;;;;;;14.07;12.57;;;;;;;4.61;97.48;99847.22;5056774;28;20205;-68
2021/12/16 03:49:20;;;;;;;15.07;13.17;;;;;;;4.58;97.57;99848.34;5057567;28;20189;-68
2021/12/16 03:51:54;;;;;;;16.87;13.33;;;;;;;4.68;97.48;99867.59;5057137;28;20491;-68
2021/12/16 03:54:25;;;;;;;15.03;13.43;;;;;;;4.67;97.86;99859.84;5056944;28;20220;-68
2021/12/16 03:56:53;;;;;;;13.93;12.20;;;;;;;4.76;96.07;99861.63;5056899;28;20259;-68
2021/12/16 03:59:24;;;;;;;14.77;12.63;;;;;;;4.76;96.18;99864.28;5056867;28;20216;-68
2021/12/16 04:01:53;;;;;;;13.93;12.43;;;;;;;4.65;96.82;99865.22;5057081;28;20200;-68
2021/12/16 04:04:19;;;;;;;15.33;13.73;;;;;;;4.72;96.35;99861.09;5056712;28;20247;-69
2021/12/16 04:06:46;;;;;;;14.47;12.77;;;;;;;4.75;96.81;99859.97;5056643;28;20237;-68
2021/12/16 04:09:15;;;;;;;13.97;12.23;;;;;;;4.71;96.17;99859.41;5056678;28;20211;-68
2021/12/16 04:11:50;;;;;;;13.77;12.37;;;;;;;4.78;95.57;99857.03;5056569;28;20221;-69
2021/12/16 04:14:18;;;;;;;14.57;12.93;;;;;;;4.82;95.59;99850.53;5056537;28;20689;-68
2021/12/16 04:16:52;;;;;;;15.70;13.40;;;;;;;4.94;94.60;99860.81;5056252;28;20499;-68
2021/12/16 04:19:22;;;;;;;15.93;14.10;;;;;;;4.70;95.47;99857.75;5055412;28;20589;-68
2021/12/16 04:21:54;;;;;;;17.30;15.20;;;;;;;4.74;95.98;99864.41;5056512;28;20197;-68
2021/12/16 04:24:20;;;;;;;16.97;15.17;;;;;;;4.73;96.04;99868.00;5056029;28;20541;-68
2021/12/16 04:26:50;;;;;;;18.37;15.50;;;;;;;4.72;97.49;99870.78;5056242;28;20231;-68
2021/12/16 04:29:17;;;;;;;18.30;15.77;;;;;;;4.73;96.34;99873.28;5056309;28;20197;-69
2021/12/16 04:31:45;;;;;;;17.83;14.83;;;;;;;4.71;96.29;99869.13;5056293;28;20292;-68
2021/12/16 04:34:12;;;;;;;17.80;14.90;;;;;;;4.77;96.35;99876.47;5056068;28;20660;-68
2021/12/16 04:36:40;;;;;;;17.47;15.50;;;;;;;4.72;96.34;99871.63;5056004;28;20201;-69
2021/12/16 04:39:11;;;;;;;16.57;14.00;;;;;;;4.69;95.93;99855.25;5055725;28;20205;-68
2021/12/16 04:41:38;;;;;;;16.27;14.13;;;;;;;4.80;95.81;99852.50;5055910;28;20193;-68
2021/12/16 04:44:09;;;;;;;18.97;15.90;;;;;;;4.74;95.67;99859.13;5055966;28;20240;-68
2021/12/16 04:46:35;;;;;;;17.90;14.70;;;;;;;4.74;97.09;99855.69;5055953;28;20232;-68
2021/12/16 04:49:03;;;;;;;18.43;15.43;;;;;;;4.62;96.97;99856.78;5055813;28;20193;-69
2021/12/16 04:51:33;;;;;;;17.90;14.67;;;;;;;4.58;97.24;99856.22;5055500;28;20194;-68
2021/12/16 04:54:00;;;;;;;18.30;15.33;;;;;;;4.62;96.79;99860.22;5055621;28;20189;-68
2021/12/16 04:56:27;;;;;;;18.13;15.47;;;;;;;4.64;97.66;99858.31;5055780;28;20189;-68
2021/12/16 04:58:55;;;;;;;18.63;16.23;;;;;;;4.70;97.07;99856.94;5055965;28;20185;-68
2021/12/16 05:01:22;;;;;;;19.23;16.43;;;;;;;4.67;96.85;99873.00;5055801;28;20200;-68
2021/12/16 05:03:51;;;;;;;18.77;16.07;;;;;;;4.66;98.39;99869.53;5056230;28;20189;-68
2021/12/16 05:06:17;;;;;;;19.43;16.23;;;;;;;4.65;97.64;99873.13;5055800;28;20232;-68
2021/12/16 05:08:44;;;;;;;20.13;16.83;;;;;;;4.57;98.27;99872.16;5055888;28;20189;-68
2021/12/16 05:11:15;;;;;;;17.83;15.50;;;;;;;4.66;97.28;99872.16;5055510;28;20209;-68
2021/12/16 05:13:43;;;;;;;18.20;15.37;;;;;;;4.67;97.95;99873.84;5055934;28;20190;-68
2021/12/16 05:16:10;;;;;;;19.37;15.80;;;;;;;4.74;97.63;99884.66;5055379;28;20618;-69
2021/12/16 05:18:38;;;;;;;20.87;17.70;;;;;;;4.70;97.70;99878.00;5055207;28;20593;-68
2021/12/16 05:21:40;;;;;;;19.80;16.30;;;;;;;4.67;98.36;99886.16;5055557;28;20292;-69
2021/12/16 05:24:25;;;;;;;19.90;16.90;;;;;;;4.63;98.54;99893.53;5055536;28;20220;-68
2021/12/16 05:26:54;;;;;;;23.27;17.87;;;;;;;4.63;97.78;99895.31;5055237;28;20511;-69
2021/12/16 05:29:20;;;;;;;21.40;17.90;;;;;;;4.67;97.44;99902.81;5055362;28;20589;-68
2021/12/16 05:31:47;;;;;;;22.57;18.50;;;;;;;4.66;97.58;99902.97;5058923;28;20216;-68
2021/12/16 05:34:14;;;;;;;23.97;18.40;;;;;;;4.62;97.58;99902.38;5058814;28;20305;-68
2021/12/16 05:36:40;;;;;;;23.87;18.23;;;;;;;4.62;97.68;99904.19;5059400;28;20186;-68
2021/12/16 05:39:09;;;;;;;24.47;19.43;;;;;;;4.67;97.85;99909.88;5059034;28;20566;-69
2021/12/16 05:41:36;;;;;;;23.07;18.33;;;;;;;4.69;98.11;99915.84;5059184;28;20190;-69
2021/12/16 05:44:02;;;;;;;23.40;18.37;;;;;;;4.69;98.50;99921.09;5058849;28;20201;-69
2021/12/16 05:46:29;;;;;;;21.27;17.13;;;;;;;4.75;97.65;99917.94;5058371;28;20213;-69
2021/12/16 05:48:56;;;;;;;23.10;16.90;;;;;;;4.78;97.91;99926.41;5056664;28;20589;-68
2021/12/16 05:51:27;;;;;;;17.37;14.47;;;;;;;4.77;98.07;99923.91;5056854;28;20198;-68
2021/12/16 05:53:55;;;;;;;18.33;15.13;;;;;;;4.68;97.36;99930.81;5057168;28;20194;-69
2021/12/16 05:56:22;;;;;;;21.10;15.90;;;;;;;4.68;98.50;99936.09;5056564;28;20592;-68
2021/12/16 05:58:48;;;;;;;20.00;16.23;;;;;;;4.71;97.97;99933.16;5056880;28;20189;-69
2021/12/16 06:01:21;;;;;;;19.53;15.30;;;;;;;4.66;98.55;99934.56;5056450;28;20604;-69
2021/12/16 06:03:49;;;;;;;19.63;15.23;;;;;;;4.67;98.13;99937.06;5057117;28;20185;-69
2021/12/16 06:06:16;;;;;;;20.80;15.57;;;;;;;4.68;98.15;99943.16;5058786;28;20214;-69
2021/12/16 06:08:44;;;;;;;19.23;15.20;;;;;;;4.69;98.84;99945.66;5058624;28;20186;-69
2021/12/16 06:11:17;;;;;;;17.60;15.13;;;;;;;4.67;98.49;99939.72;5058132;28;20209;-69
2021/12/16 06:14:03;;;;;;;23.40;15.23;;;;;;;4.72;98.20;99937.50;5058212;28;20243;-69
2021/12/16 06:27:46;;;;;;;19.33;13.47;;;;;;;4.78;97.53;99939.56;5016286;28;20254;-69
2021/12/16 06:30:16;;;;;;;19.07;12.73;;;;;;;4.79;98.62;99937.78;5016641;28;20210;-69
2021/12/16 06:32:43;;;;;;;16.40;13.67;;;;;;;4.78;98.67;99947.47;5036080;28;20209;-69
2021/12/16 06:35:12;;;;;;;17.43;13.53;;;;;;;4.78;97.97;99941.38;5057903;28;20229;-68
2021/12/16 06:37:39;;;;;;;17.07;13.83;;;;;;;4.77;97.89;99942.34;5057959;28;20216;-69
2021/12/16 06:40:07;;;;;;;16.87;14.17;;;;;;;4.73;98.68;99935.66;5057873;28;20199;-69
2021/12/16 06:42:36;;;;;;;17.83;13.87;;;;;;;4.73;98.17;99940.94;5056552;28;20277;-68
2021/12/16 06:45:08;;;;;;;14.93;12.93;;;;;;;4.88;97.57;99940.41;5057284;28;20233;-70
2021/12/16 06:47:42;;;;;;;15.57;13.17;;;;;;;4.85;98.49;99945.97;5057367;28;20623;-69
2021/12/16 06:50:09;;;;;;;17.77;13.57;;;;;;;4.76;97.74;99936.25;5057600;28;20209;-69
2021/12/16 06:52:42;;;;;;;21.03;15.87;;;;;;;4.80;97.79;99935.00;5057647;28;20213;-69
2021/12/16 06:55:16;;;;;;;18.87;14.67;;;;;;;4.85;96.76;99942.50;5057579;28;20225;-69
2021/12/16 06:57:49;;;;;;;21.87;15.63;;;;;;;4.79;97.75;99945.69;5057488;28;20190;-69
2021/12/16 07:00:27;;;;;;;21.27;15.93;;;;;;;4.81;98.07;99951.63;5057356;28;20189;-69
2021/12/16 07:02:59;;;;;;;18.43;15.30;;;;;;;4.79;98.51;99945.69;5057224;28;20197;-69
2021/12/16 07:05:35;;;;;;;20.50;15.67;;;;;;;4.82;98.47;99948.03;5056536;28;20668;-69
2021/12/16 07:08:03;;;;;;;20.17;15.20;;;;;;;4.80;98.02;99958.69;5057105;28;20213;-69
2021/12/16 07:10:32;;;;;;;21.90;16.17;;;;;;;4.76;98.88;99954.69;5057242;28;20213;-69
2021/12/16 07:13:06;;;;;;;22.07;16.97;;;;;;;4.82;98.09;99962.06;5057614;28;20190;-69
2021/12/16 07:15:33;;;;;;;21.07;15.33;;;;;;;4.83;97.53;99968.97;5056847;28;20228;-69
2021/12/16 07:18:00;;;;;;;22.97;16.63;;;;;;;4.87;97.70;99980.06;5057158;28;20209;-70
2021/12/16 07:20:29;;;;;;;22.33;15.00;;;;;;;4.81;97.47;99980.63;5056894;28;20208;-69
2021/12/16 07:22:58;;;;;;;23.57;17.77;;;;;;;4.82;98.50;99974.38;5056674;28;20605;-69
2021/12/16 07:25:25;;;;;;;19.17;14.90;;;;;;;4.77;97.89;99971.31;5055171;28;20218;-69
2021/12/16 07:27:51;;;;;;;21.67;15.90;;;;;;;4.78;98.21;99960.66;5055652;28;20227;-69
2021/12/16 07:30:22;;;;;;;21.97;15.50;;;;;;;4.82;97.49;99972.59;5056451;28;20198;-69
2021/12/16 07:32:49;;;;;;;18.37;15.00;;;;;;;4.85;97.89;99963.56;5055949;28;20261;-69
2021/12/16 07:35:20;;;;;;;18.87;14.80;;;;;;;4.86;97.88;99965.25;5055946;28;20228;-69
2021/12/16 07:37:47;;;;;;;18.57;14.97;;;;;;;4.86;97.54;99974.00;5056022;28;20264;-68
2021/12/16 07:40:16;;;;;;;18.00;14.97;;;;;;;4.89;96.92;99981.59;5056129;28;20212;-69
2021/12/16 07:42:47;;;;;;;19.83;15.63;;;;;;;4.93;96.99;99984.81;5056446;28;20469;-69
2021/12/16 07:45:18;;;;;;;22.50;15.47;;;;;;;4.90;97.50;99988.56;5056375;28;20739;-69
2021/12/16 07:47:46;;;;;;;20.50;15.83;;;;;;;4.92;97.41;99981.34;5056563;28;20221;-69
2021/12/16 07:50:14;;;;;;;22.90;15.40;;;;;;;4.99;97.20;99979.84;5056726;28;20201;-68
2021/12/16 07:52:41;;;;;;;18.40;15.23;;;;;;;5.07;97.69;99993.13;5056436;28;20209;-68
2021/12/16 07:55:10;;;;;;;20.30;15.90;;;;;;;5.00;95.69;99991.19;5056062;28;20611;-69
2021/12/16 07:57:37;;;;;;;19.63;15.00;;;;;;;4.89;95.99;99993.97;5056690;28;20208;-69
2021/12/16 08:00:12;;;;;;;20.33;14.77;;;;;;;4.92;96.12;99997.16;5056743;28;20189;-69
2021/12/16 08:02:39;;;;;;;24.53;15.57;;;;;;;4.98;97.50;99996.59;5056738;28;20196;-68
2021/12/16 08:05:09;;;;;;;21.00;15.50;;;;;;;5.04;97.26;99995.22;5056842;28;20217;-69
2021/12/16 08:07:36;;;;;;;20.27;14.93;;;;;;;5.11;95.98;99991.09;5056272;28;20224;-69
2021/12/16 08:10:05;;;;;;;19.10;15.20;;;;;;;5.19;95.61;99996.47;5056387;28;20604;-69
2021/12/16 08:12:33;;;;;;;19.07;15.30;;;;;;;5.09;95.29;99991.22;5056374;28;20243;-68
2021/12/16 08:15:00;;;;;;;20.17;14.77;;;;;;;5.09;96.58;99998.28;5056200;28;20221;-69
2021/12/16 08:17:26;;;;;;;19.30;15.77;;;;;;;5.03;96.01;100004.97;5056512;28;20193;-69
2021/12/16 08:19:52;;;;;;;20.30;14.87;;;;;;;5.10;95.51;100016.59;5056141;28;20197;-69
2021/12/16 08:22:19;;;;;;;18.33;15.13;;;;;;;5.19;95.30;100022.84;5056220;28;20208;-69
2021/12/16 08:24:45;;;;;;;20.27;15.53;;;;;;;5.34;94.26;100024.13;5056214;28;20224;-69
2021/12/16 08:27:14;;;;;;;19.50;14.67;;;;;;;5.27;94.73;100025.63;5056351;28;20213;-69
2021/12/16 08:29:42;;;;;;;20.50;15.30;;;;;;;5.17;95.63;100024.81;5056223;28;20295;-69
2021/12/16 08:32:09;;;;;;;19.70;15.43;;;;;;;5.16;95.77;100016.03;5056455;28;20205;-69
2021/12/16 08:34:38;;;;;;;22.40;14.93;;;;;;;5.19;96.17;100023.69;5056582;28;20225;-69
2021/12/16 08:37:07;;;;;;;19.50;15.70;;;;;;;5.26;95.44;100024.81;5056169;28;20201;-69
2021/12/16 08:39:35;;;;;;;19.13;15.07;;;;;;;5.26;93.93;100027.47;5056075;28;20217;-69
2021/12/16 08:42:04;;;;;;;23.87;15.97;;;;;;;5.31;95.25;100033.16;5055604;28;20524;-69
2021/12/16 08:44:30;;;;;;;20.27;15.40;;;;;;;5.59;93.83;100045.50;5055730;28;20660;-69
2021/12/16 08:47:02;;;;;;;19.60;15.40;;;;;;;5.45;93.80;100027.47;5055764;28;20217;-69
2021/12/16 08:49:29;;;;;;;19.53;14.97;;;;;;;5.44;95.04;100038.16;5056123;28;20313;-68
2021/12/16 08:51:59;;;;;;;21.87;16.07;;;;;;;5.40;94.89;100036.75;5056157;28;20197;-68
2021/12/16 08:54:26;;;;;;;18.47;14.27;;;;;;;5.53;93.66;100039.94;5056114;28;20275;-69
2021/12/16 08:56:53;;;;;;;21.73;15.33;;;;;;;5.50;94.17;100041.06;5056012;28;20186;-69
2021/12/16 08:59:21;;;;;;;23.77;15.90;;;;;;;5.46;94.20;100038.81;5055767;28;20201;-69
2021/12/16 09:01:51;;;;;;;20.73;14.73;;;;;;;5.60;93.12;100048.97;5055970;28;20223;-69
2021/12/16 09:04:19;;;;;;;23.23;15.20;;;;;;;5.50;93.43;100042.84;5055899;28;20228;-69
2021/12/16 09:06:46;;;;;;;21.27;14.87;;;;;;;5.48;93.86;100052.72;5059579;28;20193;-69
2021/12/16 09:09:14;;;;;;;19.27;15.30;;;;;;;5.44;93.41;100053.97;5059658;28;20491;-69
2021/12/16 09:11:54;;;;;;;20.20;15.10;;;;;;;5.66;93.24;100059.78;5059418;28;20215;-69
2021/12/16 09:14:23;;;;;;;21.03;14.93;;;;;;;5.53;94.03;100051.34;5059843;28;20221;-69
2021/12/16 09:16:49;;;;;;;25.17;16.03;;;;;;;5.62;94.03;100052.31;5060026;28;20251;-69
2021/12/16 09:19:16;;;;;;;20.13;15.40;;;;;;;5.55;93.61;100064.38;5059942;28;20197;-68
2021/12/16 09:21:42;;;;;;;20.63;15.33;;;;;;;5.57;93.39;100059.81;5059549;28;20190;-69
2021/12/16 09:24:12;;;;;;;22.13;16.17;;;;;;;5.63;92.45;100069.81;5059664;28;20655;-69
2021/12/16 09:26:38;;;;;;;21.47;15.10;;;;;;;5.91;91.43;100074.25;5059774;28;20282;-69
2021/12/16 09:29:05;;;;;;;20.03;15.17;;;;;;;5.68;92.19;100072.84;5059657;28;20217;-69
2021/12/16 09:31:31;;;;;;;20.73;15.90;;;;;;;5.68;91.93;100071.06;5060554;28;20468;-68
2021/12/16 09:34:04;;;;;;;20.50;14.90;;;;;;;5.67;92.38;100079.09;5059233;28;20265;-69
2021/12/16 09:36:31;;;;;;;23.43;16.27;;;;;;;5.74;92.07;100072.31;5059769;28;20516;-69
2021/12/16 09:38:57;;;;;;;24.33;16.17;;;;;;;5.80;92.67;100077.03;5059414;28;20185;-69
2021/12/16 09:41:26;;;;;;;22.60;15.07;;;;;;;5.80;91.70;100079.66;5059311;28;20263;-69
2021/12/16 09:43:54;;;;;;;22.10;15.60;;;;;;;5.77;91.73;100077.28;5059506;28;20197;-69
2021/12/16 09:46:24;;;;;;;21.00;14.97;;;;;;;5.74;92.28;100086.31;5059148;28;20197;-69
2021/12/16 09:48:51;;;;;;;20.93;14.97;;;;;;;5.68;91.55;100086.06;5058989;28;20219;-68
2021/12/16 09:51:23;;;;;;;24.03;16.40;;;;;;;5.75;93.12;100081.91;5059302;28;20189;-69
2021/12/16 09:53:53;;;;;;;19.53;14.87;;;;;;;5.77;92.29;100087.84;5059229;28;20200;-69
2021/12/16 09:56:20;;;;;;;23.30;16.10;;;;;;;5.79;92.28;100076.19;5059272;28;20193;-69
2021/12/16 09:58:49;;;;;;;20.80;15.40;;;;;;;5.70;91.62;100084.94;5059005;28;20185;-69
2021/12/16 10:01:18;;;;;;;20.87;15.93;;;;;;;5.76;92.46;100086.19;5059069;28;20190;-71
2021/12/16 10:03:48;;;;;;;22.37;15.90;;;;;;;5.79;92.22;100084.09;5058741;28;20585;-71
2021/12/16 10:06:18;;;;;;;23.90;16.23;;;;;;;5.84;91.03;100076.63;5059219;28;20194;-71
2021/12/16 10:08:46;;;;;;;19.80;14.80;;;;;;;5.87;90.74;100086.91;5058645;28;20206;-71
2021/12/16 10:11:12;;;;;;;21.87;15.33;;;;;;;5.75;90.62;100080.06;5058700;28;20299;-71
2021/12/16 10:13:45;;;;;;;22.53;16.23;;;;;;;5.84;91.49;100081.09;5058753;28;20487;-71
2021/12/16 10:18:56;;;;;;;23.60;15.27;;;;;;;5.95;90.86;100084.41;5058959;28;20302;-71
2021/12/16 10:21:24;;;;;;;23.97;15.93;;;;;;;5.97;91.21;100079.00;5058659;28;20201;-71
2021/12/16 10:23:50;;;;;;;19.47;14.17;;;;;;;6.07;89.88;100077.97;5058492;28;20197;-71
2021/12/16 10:26:22;;;;;;;19.13;14.80;;;;;;;5.97;91.48;100076.34;5058402;28;20535;-71
2021/12/16 10:28:52;;;;;;;21.50;14.80;;;;;;;5.98;90.30;100076.19;5058025;28;20520;-71
2021/12/16 10:31:30;;;;;;;21.30;14.90;;;;;;;6.09;90.40;100068.13;5058747;28;20190;-71
2021/12/16 10:34:03;;;;;;;22.90;15.70;;;;;;;5.98;92.13;100065.63;5058529;28;20193;-71
2021/12/16 10:36:33;;;;;;;24.53;15.43;;;;;;;6.05;91.10;100076.47;5058433;28;20276;-71
2021/12/16 10:39:11;;;;;;;20.33;14.53;;;;;;;6.00;90.21;100083.97;5058286;28;20197;-71
2021/12/16 10:41:50;;;;;;;20.27;15.17;;;;;;;5.95;90.48;100080.94;5058256;28;20193;-72
2021/12/16 10:44:17;;;;;;;21.93;14.40;;;;;;;5.98;91.56;100085.94;5057857;28;20236;-71
2021/12/16 10:46:50;;;;;;;19.00;14.40;;;;;;;5.99;91.76;100077.88;5057830;28;20280;-71
2021/12/16 10:49:22;;;;;;;20.93;15.40;;;;;;;5.98;92.06;100080.66;5058111;28;20255;-71
2021/12/16 10:51:51;;;;;;;22.30;14.83;;;;;;;5.89;91.25;100081.50;5058173;28;20197;-71
2021/12/16 10:54:23;;;;;;;21.73;14.90;;;;;;;5.92;91.37;100086.50;5058217;28;20229;-71
2021/12/16 10:57:12;;;;;;;21.67;15.47;;;;;;;5.91;90.71;100082.19;5058134;28;20212;-71
2021/12/16 10:59:51;;;;;;;22.03;15.37;;;;;;;5.85;91.87;100080.97;5050749;28;20197;-71
2021/12/16 11:02:21;;;;;;;20.90;14.83;;;;;;;5.92;90.48;100089.16;5057566;28;20584;-70
2021/12/16 11:04:50;;;;;;;21.23;14.07;;;;;;;5.86;91.09;100074.69;5057597;28;20308;-72
2021/12/16 11:07:25;;;;;;;19.90;14.77;;;;;;;5.87;91.34;100072.88;5057341;28;20600;-72
2021/12/16 11:09:58;;;;;;;22.40;15.03;;;;;;;5.85;91.44;100074.84;5057578;28;20196;-71
2021/12/16 11:12:57;;;;;;;21.60;15.13;;;;;;;5.98;91.38;100083.31;5057357;28;20216;-71
2021/12/16 11:15:27;;;;;;;21.10;15.00;;;;;;;5.92;91.36;100083.88;5057532;28;20229;-71
2021/12/16 11:18:02;;;;;;;20.27;14.83;;;;;;;6.08;91.10;100084.13;5057264;28;20531;-71
2021/12/16 11:20:37;;;;;;;21.70;15.73;;;;;;;6.21;88.56;100082.00;5057307;28;20192;-71
2021/12/16 11:23:17;;;;;;;23.47;14.40;;;;;;;6.06;90.31;100083.44;5057184;28;20508;-71
2021/12/16 11:26:00;;;;;;;22.80;15.10;;;;;;;6.12;90.53;100082.84;5057275;28;20225;-71
2021/12/16 11:28:40;;;;;;;20.97;14.90;;;;;;;6.06;91.12;100086.88;5056265;28;20686;-70
2021/12/16 11:31:13;;;;;;;21.83;14.63;;;;;;;6.19;90.04;100084.78;5056964;28;20186;-71
2021/12/16 11:33:42;;;;;;;20.10;14.77;;;;;;;6.17;89.91;100083.25;5056986;28;20500;-71
2021/12/16 11:36:14;;;;;;;22.60;14.57;;;;;;;6.16;89.90;100086.88;5058011;28;20205;-71
2021/12/16 11:38:48;;;;;;;18.97;13.97;;;;;;;6.20;89.45;100089.09;5056712;28;20190;-71
2021/12/16 11:41:20;;;;;;;20.27;15.33;;;;;;;6.20;89.00;100088.28;5056930;28;20194;-71
2021/12/16 11:43:58;;;;;;;21.83;14.47;;;;;;;6.13;90.48;100092.44;5056805;28;20201;-71
2021/12/16 11:46:25;;;;;;;22.90;15.37;;;;;;;6.17;89.93;100084.09;5056948;28;20196;-71
2021/12/16 11:48:54;;;;;;;21.47;14.67;;;;;;;6.26;89.38;100090.34;5056233;28;20613;-71
2021/12/16 11:51:29;;;;;;;22.37;15.50;;;;;;;6.32;89.29;100082.69;5056561;28;20589;-71
2021/12/16 11:54:02;;;;;;;19.50;14.80;;;;;;;6.35;88.23;100078.91;5056405;28;20623;-71
2021/12/16 11:56:57;;;;;;;20.90;15.13;;;;;;;6.41;87.69;100078.31;5056551;28;20496;-70
2021/12/16 11:59:36;;;;;;;20.80;15.30;;;;;;;6.40;88.45;100077.50;5056750;28;20201;-71
2021/12/16 12:02:04;;;;;;;21.83;14.67;;;;;;;6.33;88.01;100076.41;5056790;28;20189;-72
2021/12/16 12:04:35;;;;;;;20.47;14.90;;;;;;;6.30;87.76;100073.22;5056303;28;20233;-71
2021/12/16 12:07:14;;;;;;;19.67;14.63;;;;;;;6.36;88.28;100076.13;5056868;28;20190;-73
2021/12/16 12:09:48;;;;;;;18.50;14.50;;;;;;;6.42;87.84;100075.53;5056582;28;20249;-72
2021/12/16 12:12:15;;;;;;;19.50;14.60;;;;;;;6.49;87.73;100068.72;5055972;28;20220;-72
2021/12/16 12:14:44;;;;;;;20.83;15.10;;;;;;;6.56;86.83;100061.06;5056200;28;20225;-73
2021/12/16 12:17:20;;;;;;;21.93;13.90;;;;;;;6.72;87.19;100061.25;5056689;28;20205;-73
2021/12/16 12:19:51;;;;;;;18.63;14.37;;;;;;;6.59;87.21;100060.75;5057130;28;20185;-73
2021/12/16 12:22:24;;;;;;;20.10;14.43;;;;;;;6.52;87.43;100062.31;5056080;28;20196;-73
2021/12/16 12:24:51;;;;;;;21.07;14.40;;;;;;;6.64;87.27;100053.22;5055983;28;20221;-73
2021/12/16 12:27:20;;;;;;;21.53;14.47;;;;;;;6.90;86.02;100048.91;5056201;28;20236;-72
2021/12/16 12:29:56;;;;;;;17.77;12.67;;;;;;;6.88;85.53;100049.06;5056196;28;20217;-72
2021/12/16 12:32:28;;;;;;;17.90;14.53;;;;;;;6.80;86.26;100048.97;5055842;28;20189;-72
2021/12/16 12:35:06;;;;;;;19.50;13.97;;;;;;;6.81;85.95;100047.16;5055826;28;20228;-73
2021/12/16 12:37:36;;;;;;;17.70;14.17;;;;;;;6.60;86.79;100041.28;5056030;28;20201;-73
2021/12/16 12:40:09;;;;;;;17.40;13.47;;;;;;;6.75;87.20;100035.34;5055207;28;20193;-73
2021/12/16 12:42:36;;;;;;;21.97;14.13;;;;;;;6.87;85.67;100038.66;5056159;28;20504;-73
2021/12/16 12:45:08;;;;;;;20.80;14.87;;;;;;;6.76;87.24;100030.91;5056201;28;20217;-73
2021/12/16 12:47:37;;;;;;;17.23;12.97;;;;;;;7.07;84.75;100034.91;5056167;28;20193;-73
2021/12/16 12:50:25;;;;;;;18.17;12.90;;;;;;;6.97;84.13;100031.50;5055934;28;20189;-73
2021/12/16 12:52:53;;;;;;;19.47;13.10;;;;;;;6.80;85.40;100025.19;5055612;28;20190;-73
2021/12/16 12:55:34;;;;;;;21.67;14.37;;;;;;;6.81;85.87;100032.13;5055881;28;20226;-73
2021/12/16 12:58:05;;;;;;;17.67;13.37;;;;;;;6.78;85.37;100015.75;5055882;28;20197;-73
2021/12/16 13:00:35;;;;;;;18.50;13.07;;;;;;;6.79;85.74;100031.44;5055612;28;20189;-73
2021/12/16 13:03:16;;;;;;;16.00;12.70;;;;;;;7.05;84.40;100042.13;5055799;28;20197;-72
2021/12/16 13:05:57;;;;;;;19.70;13.37;;;;;;;6.96;85.89;100040.38;5055318;28;20659;-73
2021/12/16 13:08:48;;;;;;;17.77;12.77;;;;;;;7.29;81.54;100042.41;5055729;28;20304;-73
2021/12/16 13:11:30;;;;;;;17.00;12.37;;;;;;;6.96;84.40;100045.66;5056166;28;20209;-71
2021/12/16 13:14:15;;;;;;;20.33;12.77;;;;;;;6.94;83.62;100047.66;5055556;28;20239;-71
2021/12/16 13:17:41;;;;;;;19.87;13.00;;;;;;;6.93;83.61;100053.91;5055464;28;20192;-71
2021/12/16 13:28:38;;;;;;;17.00;12.43;;;;;;;7.01;83.64;100043.44;5055584;28;20276;-71
2021/12/16 13:31:24;;;;;;;17.23;13.13;;;;;;;7.27;82.37;100036.44;5055459;28;20192;-71
2021/12/16 13:33:55;;;;;;;18.27;12.13;;;;;;;7.07;81.65;100034.91;5055510;28;20557;-71